Coaldale, West Virginia
Current Conditions -  °F | °C
As of 4:52 AM on Friday 31 Oct 2014 (Local Time) from KBLF Reporting Station
Overcast Overcast  
Wind Chill: 37°   Ceiling: 3400
Heat Index: 37°   Visibility: 10mi
Dew Point: 31°   Wind: 3mph
Humidity: 79%   Direction: 110°ESE
Pressure: 29.97"   Gusts: NA
Location:  37.3633°N, 81.3346°W
Report Text: KBLF 310852Z AUTO 11003KT 10SM OVC034 03/M01 A2997 RMK AO2 SLP146 T00281006 58010
Loading
Personal Weather Stations






























Interactive Weather Map
Tropical Storm Tracking
New forecast layout! Learn more

10-Day Weather Forecast

Advertisements
Track Severe Weather on mobile